sensor_id;sensor_type;location;lat;lon;timestamp;P1;durP1;ratioP1;P2;durP2;ratioP2
10471;SDS011;5283;48.876;8.962;2023-11-19T00:01:33;3.20;;;1.90;;
10471;SDS011;5283;48.876;8.962;2023-11-19T00:03:59;1.97;;;1.87;;
10471;SDS011;5283;48.876;8.962;2023-11-19T00:06:26;2.67;;;2.30;;
10471;SDS011;5283;48.876;8.962;2023-11-19T00:08:54;3.33;;;2.53;;
10471;SDS011;5283;48.876;8.962;2023-11-19T00:11:20;2.17;;;2.03;;
10471;SDS011;5283;48.876;8.962;2023-11-19T00:13:48;2.83;;;2.53;;
10471;SDS011;5283;48.876;8.962;2023-11-19T00:16:15;2.83;;;2.53;;
10471;SDS011;5283;48.876;8.962;2023-11-19T00:18:42;6.57;;;4.67;;
10471;SDS011;5283;48.876;8.962;2023-11-19T00:21:09;3.33;;;2.73;;
10471;SDS011;5283;48.876;8.962;2023-11-19T00:23:36;1.93;;;1.63;;
10471;SDS011;5283;48.876;8.962;2023-11-19T00:26:03;1.53;;;1.43;;
10471;SDS011;5283;48.876;8.962;2023-11-19T00:28:32;2.10;;;1.90;;
10471;SDS011;5283;48.876;8.962;2023-11-19T00:31:00;2.07;;;1.70;;
10471;SDS011;5283;48.876;8.962;2023-11-19T00:33:28;0.87;;;0.87;;
10471;SDS011;5283;48.876;8.962;2023-11-19T00:35:55;3.30;;;2.13;;
10471;SDS011;5283;48.876;8.962;2023-11-19T00:38:22;1.50;;;1.40;;
10471;SDS011;5283;48.876;8.962;2023-11-19T00:40:48;4.20;;;1.93;;
10471;SDS011;5283;48.876;8.962;2023-11-19T00:43:15;3.93;;;3.53;;
10471;SDS011;5283;48.876;8.962;2023-11-19T00:45:42;2.33;;;2.20;;
10471;SDS011;5283;48.876;8.962;2023-11-19T00:48:09;2.50;;;2.30;;
10471;SDS011;5283;48.876;8.962;2023-11-19T00:50:36;1.90;;;1.80;;
10471;SDS011;5283;48.876;8.962;2023-11-19T00:53:03;0.47;;;0.47;;
10471;SDS011;5283;48.876;8.962;2023-11-19T00:55:30;0.23;;;0.23;;
10471;SDS011;5283;48.876;8.962;2023-11-19T00:57:56;0.47;;;0.20;;
10471;SDS011;5283;48.876;8.962;2023-11-19T01:00:24;0.30;;;0.30;;
10471;SDS011;5283;48.876;8.962;2023-11-19T01:02:53;0.53;;;0.20;;
10471;SDS011;5283;48.876;8.962;2023-11-19T01:05:20;0.40;;;0.40;;
10471;SDS011;5283;48.876;8.962;2023-11-19T01:07:50;0.40;;;0.30;;
10471;SDS011;5283;48.876;8.962;2023-11-19T01:10:19;0.23;;;0.20;;
10471;SDS011;5283;48.876;8.962;2023-11-19T01:12:46;0.20;;;0.20;;
10471;SDS011;5283;48.876;8.962;2023-11-19T01:15:13;0.40;;;0.30;;
10471;SDS011;5283;48.876;8.962;2023-11-19T01:17:40;1.10;;;0.80;;
10471;SDS011;5283;48.876;8.962;2023-11-19T01:20:17;0.20;;;0.20;;
10471;SDS011;5283;48.876;8.962;2023-11-19T01:22:44;0.30;;;0.30;;
10471;SDS011;5283;48.876;8.962;2023-11-19T01:25:10;0.27;;;0.20;;
10471;SDS011;5283;48.876;8.962;2023-11-19T01:27:37;0.10;;;0.10;;
10471;SDS011;5283;48.876;8.962;2023-11-19T01:30:05;0.20;;;0.20;;
10471;SDS011;5283;48.876;8.962;2023-11-19T01:32:35;0.10;;;0.10;;
10471;SDS011;5283;48.876;8.962;2023-11-19T01:35:03;0.13;;;0.13;;
10471;SDS011;5283;48.876;8.962;2023-11-19T01:37:30;0.10;;;0.10;;
10471;SDS011;5283;48.876;8.962;2023-11-19T01:39:58;0.63;;;0.20;;
10471;SDS011;5283;48.876;8.962;2023-11-19T01:42:25;0.20;;;0.20;;
10471;SDS011;5283;48.876;8.962;2023-11-19T01:44:58;0.20;;;0.20;;
10471;SDS011;5283;48.876;8.962;2023-11-19T01:47:25;0.30;;;0.30;;
10471;SDS011;5283;48.876;8.962;2023-11-19T01:49:54;0.20;;;0.20;;
10471;SDS011;5283;48.876;8.962;2023-11-19T01:52:24;0.23;;;0.10;;
10471;SDS011;5283;48.876;8.962;2023-11-19T01:54:52;0.53;;;0.13;;
10471;SDS011;5283;48.876;8.962;2023-11-19T01:57:21;1.07;;;0.20;;
10471;SDS011;5283;48.876;8.962;2023-11-19T01:59:50;0.30;;;0.20;;
10471;SDS011;5283;48.876;8.962;2023-11-19T02:02:18;0.10;;;0.10;;
10471;SDS011;5283;48.876;8.962;2023-11-19T02:04:49;0.13;;;0.13;;
10471;SDS011;5283;48.876;8.962;2023-11-19T02:07:17;0.40;;;0.20;;
10471;SDS011;5283;48.876;8.962;2023-11-19T02:09:44;0.10;;;0.10;;
10471;SDS011;5283;48.876;8.962;2023-11-19T02:12:10;0.40;;;0.20;;
10471;SDS011;5283;48.876;8.962;2023-11-19T02:14:41;0.20;;;0.20;;
10471;SDS011;5283;48.876;8.962;2023-11-19T02:17:09;3.30;;;0.20;;
10471;SDS011;5283;48.876;8.962;2023-11-19T02:19:54;0.20;;;0.10;;
10471;SDS011;5283;48.876;8.962;2023-11-19T02:22:21;0.10;;;0.10;;
10471;SDS011;5283;48.876;8.962;2023-11-19T02:24:49;0.43;;;0.00;;
10471;SDS011;5283;48.876;8.962;2023-11-19T02:28:02;0.10;;;0.10;;
10471;SDS011;5283;48.876;8.962;2023-11-19T02:30:13;0.97;;;0.40;;
10471;SDS011;5283;48.876;8.962;2023-11-19T02:32:41;0.40;;;0.40;;
10471;SDS011;5283;48.876;8.962;2023-11-19T02:35:08;1.30;;;1.20;;
10471;SDS011;5283;48.876;8.962;2023-11-19T02:37:35;1.80;;;1.70;;
10471;SDS011;5283;48.876;8.962;2023-11-19T02:40:02;2.90;;;2.70;;
10471;SDS011;5283;48.876;8.962;2023-11-19T02:42:30;1.37;;;1.20;;
10471;SDS011;5283;48.876;8.962;2023-11-19T02:44:57;2.27;;;2.07;;
10471;SDS011;5283;48.876;8.962;2023-11-19T02:47:24;3.60;;;3.30;;
10471;SDS011;5283;48.876;8.962;2023-11-19T02:49:51;4.40;;;4.00;;
10471;SDS011;5283;48.876;8.962;2023-11-19T02:52:19;2.90;;;2.60;;
10471;SDS011;5283;48.876;8.962;2023-11-19T02:54:45;3.10;;;2.90;;
10471;SDS011;5283;48.876;8.962;2023-11-19T02:57:12;2.20;;;2.10;;
10471;SDS011;5283;48.876;8.962;2023-11-19T02:59:47;1.93;;;1.83;;
10471;SDS011;5283;48.876;8.962;2023-11-19T03:02:13;1.73;;;1.63;;
10471;SDS011;5283;48.876;8.962;2023-11-19T03:04:42;4.20;;;3.80;;
10471;SDS011;5283;48.876;8.962;2023-11-19T03:07:10;4.07;;;3.67;;
10471;SDS011;5283;48.876;8.962;2023-11-19T03:09:36;5.17;;;4.67;;
10471;SDS011;5283;48.876;8.962;2023-11-19T03:12:06;5.57;;;5.07;;
10471;SDS011;5283;48.876;8.962;2023-11-19T03:14:33;5.63;;;5.13;;
10471;SDS011;5283;48.876;8.962;2023-11-19T03:17:03;5.63;;;5.10;;
10471;SDS011;5283;48.876;8.962;2023-11-19T03:19:31;6.33;;;5.73;;
10471;SDS011;5283;48.876;8.962;2023-11-19T03:21:57;4.07;;;3.77;;
10471;SDS011;5283;48.876;8.962;2023-11-19T03:24:25;6.40;;;5.43;;
10471;SDS011;5283;48.876;8.962;2023-11-19T03:26:52;5.80;;;5.20;;
10471;SDS011;5283;48.876;8.962;2023-11-19T03:29:19;6.27;;;5.70;;
10471;SDS011;5283;48.876;8.962;2023-11-19T03:31:45;5.80;;;5.20;;
10471;SDS011;5283;48.876;8.962;2023-11-19T03:34:12;6.07;;;4.53;;
10471;SDS011;5283;48.876;8.962;2023-11-19T03:36:39;7.20;;;4.97;;
10471;SDS011;5283;48.876;8.962;2023-11-19T03:39:06;2.37;;;2.27;;
10471;SDS011;5283;48.876;8.962;2023-11-19T03:41:32;4.20;;;3.90;;
10471;SDS011;5283;48.876;8.962;2023-11-19T03:44:02;4.77;;;4.37;;
10471;SDS011;5283;48.876;8.962;2023-11-19T03:46:29;5.13;;;4.63;;
10471;SDS011;5283;48.876;8.962;2023-11-19T03:48:56;5.83;;;4.93;;
10471;SDS011;5283;48.876;8.962;2023-11-19T03:51:22;3.40;;;3.20;;
10471;SDS011;5283;48.876;8.962;2023-11-19T03:53:49;5.00;;;4.57;;
10471;SDS011;5283;48.876;8.962;2023-11-19T03:56:16;4.90;;;4.43;;
10471;SDS011;5283;48.876;8.962;2023-11-19T03:58:43;6.17;;;5.30;;
10471;SDS011;5283;48.876;8.962;2023-11-19T04:01:12;5.50;;;5.00;;
10471;SDS011;5283;48.876;8.962;2023-11-19T04:03:39;5.23;;;4.60;;
10471;SDS011;5283;48.876;8.962;2023-11-19T04:06:15;5.13;;;4.63;;
10471;SDS011;5283;48.876;8.962;2023-11-19T04:08:42;4.33;;;3.93;;
10471;SDS011;5283;48.876;8.962;2023-11-19T04:11:09;5.73;;;4.47;;
10471;SDS011;5283;48.876;8.962;2023-11-19T04:13:36;5.73;;;4.67;;
10471;SDS011;5283;48.876;8.962;2023-11-19T04:16:03;6.33;;;5.13;;
10471;SDS011;5283;48.876;8.962;2023-11-19T04:18:30;5.50;;;5.00;;
10471;SDS011;5283;48.876;8.962;2023-11-19T04:20:58;5.00;;;4.50;;
10471;SDS011;5283;48.876;8.962;2023-11-19T04:23:24;7.03;;;5.13;;
10471;SDS011;5283;48.876;8.962;2023-11-19T04:25:51;5.50;;;4.80;;
10471;SDS011;5283;48.876;8.962;2023-11-19T04:28:18;5.27;;;4.67;;
10471;SDS011;5283;48.876;8.962;2023-11-19T04:30:45;3.80;;;3.50;;
10471;SDS011;5283;48.876;8.962;2023-11-19T04:33:11;3.13;;;2.83;;
10471;SDS011;5283;48.876;8.962;2023-11-19T04:35:38;2.00;;;1.90;;
10471;SDS011;5283;48.876;8.962;2023-11-19T04:38:05;1.93;;;1.83;;
10471;SDS011;5283;48.876;8.962;2023-11-19T04:40:32;1.00;;;1.00;;
10471;SDS011;5283;48.876;8.962;2023-11-19T04:42:59;1.43;;;1.00;;
10471;SDS011;5283;48.876;8.962;2023-11-19T04:45:26;0.70;;;0.70;;
10471;SDS011;5283;48.876;8.962;2023-11-19T04:47:53;1.37;;;1.27;;
10471;SDS011;5283;48.876;8.962;2023-11-19T04:50:19;1.60;;;1.10;;
10471;SDS011;5283;48.876;8.962;2023-11-19T04:52:46;1.80;;;0.90;;
10471;SDS011;5283;48.876;8.962;2023-11-19T04:55:13;0.30;;;0.30;;
10471;SDS011;5283;48.876;8.962;2023-11-19T04:57:40;0.30;;;0.30;;
10471;SDS011;5283;48.876;8.962;2023-11-19T05:00:07;0.23;;;0.20;;
10471;SDS011;5283;48.876;8.962;2023-11-19T05:02:37;1.47;;;0.10;;
10471;SDS011;5283;48.876;8.962;2023-11-19T05:05:04;0.10;;;0.10;;
10471;SDS011;5283;48.876;8.962;2023-11-19T05:07:31;0.20;;;0.20;;
10471;SDS011;5283;48.876;8.962;2023-11-19T05:09:58;0.90;;;0.20;;
10471;SDS011;5283;48.876;8.962;2023-11-19T05:12:24;0.30;;;0.20;;
10471;SDS011;5283;48.876;8.962;2023-11-19T05:14:51;0.10;;;0.10;;
10471;SDS011;5283;48.876;8.962;2023-11-19T05:17:18;0.10;;;0.10;;
10471;SDS011;5283;48.876;8.962;2023-11-19T05:19:45;0.10;;;0.10;;
10471;SDS011;5283;48.876;8.962;2023-11-19T05:22:12;0.20;;;0.20;;
10471;SDS011;5283;48.876;8.962;2023-11-19T05:24:39;0.70;;;0.27;;
10471;SDS011;5283;48.876;8.962;2023-11-19T05:27:07;0.20;;;0.20;;
10471;SDS011;5283;48.876;8.962;2023-11-19T05:29:34;0.20;;;0.10;;
10471;SDS011;5283;48.876;8.962;2023-11-19T05:32:00;0.60;;;0.27;;
10471;SDS011;5283;48.876;8.962;2023-11-19T05:34:27;0.93;;;0.30;;
10471;SDS011;5283;48.876;8.962;2023-11-19T05:36:54;0.27;;;0.20;;
10471;SDS011;5283;48.876;8.962;2023-11-19T05:39:21;1.13;;;0.30;;
10471;SDS011;5283;48.876;8.962;2023-11-19T05:41:48;0.20;;;0.20;;
10471;SDS011;5283;48.876;8.962;2023-11-19T05:44:14;0.40;;;0.10;;
10471;SDS011;5283;48.876;8.962;2023-11-19T05:46:41;0.80;;;0.43;;
10471;SDS011;5283;48.876;8.962;2023-11-19T05:49:09;0.40;;;0.10;;
10471;SDS011;5283;48.876;8.962;2023-11-19T05:51:37;0.67;;;0.30;;
10471;SDS011;5283;48.876;8.962;2023-11-19T05:54:06;0.43;;;0.40;;
10471;SDS011;5283;48.876;8.962;2023-11-19T05:56:33;1.30;;;0.20;;
10471;SDS011;5283;48.876;8.962;2023-11-19T05:59:01;2.73;;;0.40;;
10471;SDS011;5283;48.876;8.962;2023-11-19T06:01:29;0.50;;;0.27;;
10471;SDS011;5283;48.876;8.962;2023-11-19T06:03:56;1.87;;;0.33;;
10471;SDS011;5283;48.876;8.962;2023-11-19T06:06:23;0.40;;;0.30;;
10471;SDS011;5283;48.876;8.962;2023-11-19T06:08:50;0.97;;;0.47;;
10471;SDS011;5283;48.876;8.962;2023-11-19T06:11:16;0.87;;;0.20;;
10471;SDS011;5283;48.876;8.962;2023-11-19T06:13:46;0.60;;;0.50;;
10471;SDS011;5283;48.876;8.962;2023-11-19T06:16:14;0.80;;;0.40;;
10471;SDS011;5283;48.876;8.962;2023-11-19T06:18:40;1.23;;;0.50;;
10471;SDS011;5283;48.876;8.962;2023-11-19T06:21:07;1.20;;;0.57;;
10471;SDS011;5283;48.876;8.962;2023-11-19T06:23:34;0.77;;;0.50;;
10471;SDS011;5283;48.876;8.962;2023-11-19T06:26:01;1.13;;;0.23;;
10471;SDS011;5283;48.876;8.962;2023-11-19T06:28:27;0.13;;;0.13;;
10471;SDS011;5283;48.876;8.962;2023-11-19T06:30:54;0.60;;;0.37;;
10471;SDS011;5283;48.876;8.962;2023-11-19T06:33:21;0.37;;;0.37;;
10471;SDS011;5283;48.876;8.962;2023-11-19T06:35:49;0.40;;;0.20;;
10471;SDS011;5283;48.876;8.962;2023-11-19T06:38:15;0.20;;;0.20;;
10471;SDS011;5283;48.876;8.962;2023-11-19T06:40:42;0.80;;;0.27;;
10471;SDS011;5283;48.876;8.962;2023-11-19T06:43:09;0.47;;;0.30;;
10471;SDS011;5283;48.876;8.962;2023-11-19T06:45:36;0.27;;;0.27;;
10471;SDS011;5283;48.876;8.962;2023-11-19T06:48:03;0.70;;;0.20;;
10471;SDS011;5283;48.876;8.962;2023-11-19T06:50:31;1.20;;;0.37;;
10471;SDS011;5283;48.876;8.962;2023-11-19T06:52:58;0.67;;;0.30;;
10471;SDS011;5283;48.876;8.962;2023-11-19T06:55:26;0.43;;;0.30;;
10471;SDS011;5283;48.876;8.962;2023-11-19T06:57:53;1.80;;;0.37;;
10471;SDS011;5283;48.876;8.962;2023-11-19T07:00:19;0.43;;;0.27;;
10471;SDS011;5283;48.876;8.962;2023-11-19T07:02:46;0.33;;;0.20;;
10471;SDS011;5283;48.876;8.962;2023-11-19T07:05:13;0.20;;;0.20;;
10471;SDS011;5283;48.876;8.962;2023-11-19T07:07:39;0.87;;;0.30;;
10471;SDS011;5283;48.876;8.962;2023-11-19T07:10:06;0.30;;;0.27;;
10471;SDS011;5283;48.876;8.962;2023-11-19T07:12:35;0.50;;;0.30;;
10471;SDS011;5283;48.876;8.962;2023-11-19T07:15:02;0.20;;;0.20;;
10471;SDS011;5283;48.876;8.962;2023-11-19T07:17:30;0.30;;;0.30;;
10471;SDS011;5283;48.876;8.962;2023-11-19T07:19:57;0.37;;;0.37;;
10471;SDS011;5283;48.876;8.962;2023-11-19T07:22:27;0.10;;;0.10;;
10471;SDS011;5283;48.876;8.962;2023-11-19T07:24:56;0.37;;;0.30;;
10471;SDS011;5283;48.876;8.962;2023-11-19T07:27:22;2.30;;;0.40;;
10471;SDS011;5283;48.876;8.962;2023-11-19T07:29:50;0.30;;;0.20;;
10471;SDS011;5283;48.876;8.962;2023-11-19T07:32:17;0.30;;;0.30;;
10471;SDS011;5283;48.876;8.962;2023-11-19T07:34:45;0.40;;;0.27;;
10471;SDS011;5283;48.876;8.962;2023-11-19T07:37:11;0.40;;;0.40;;
10471;SDS011;5283;48.876;8.962;2023-11-19T07:39:39;2.47;;;2.27;;
10471;SDS011;5283;48.876;8.962;2023-11-19T07:42:07;1.80;;;1.70;;
10471;SDS011;5283;48.876;8.962;2023-11-19T07:44:35;0.70;;;0.70;;
10471;SDS011;5283;48.876;8.962;2023-11-19T07:47:02;0.83;;;0.83;;
10471;SDS011;5283;48.876;8.962;2023-11-19T07:49:29;1.63;;;0.70;;
10471;SDS011;5283;48.876;8.962;2023-11-19T07:51:57;0.30;;;0.17;;
10471;SDS011;5283;48.876;8.962;2023-11-19T07:54:24;0.13;;;0.10;;
10471;SDS011;5283;48.876;8.962;2023-11-19T07:56:50;0.57;;;0.50;;
10471;SDS011;5283;48.876;8.962;2023-11-19T07:59:17;1.00;;;1.00;;
10471;SDS011;5283;48.876;8.962;2023-11-19T08:01:44;0.60;;;0.60;;
10471;SDS011;5283;48.876;8.962;2023-11-19T08:04:10;0.50;;;0.50;;
10471;SDS011;5283;48.876;8.962;2023-11-19T08:06:37;0.30;;;0.30;;
10471;SDS011;5283;48.876;8.962;2023-11-19T08:09:04;0.37;;;0.37;;
10471;SDS011;5283;48.876;8.962;2023-11-19T08:11:33;0.90;;;0.23;;
10471;SDS011;5283;48.876;8.962;2023-11-19T08:13:59;2.83;;;0.60;;
10471;SDS011;5283;48.876;8.962;2023-11-19T08:16:26;0.20;;;0.20;;
10471;SDS011;5283;48.876;8.962;2023-11-19T08:18:53;0.67;;;0.37;;
10471;SDS011;5283;48.876;8.962;2023-11-19T08:21:20;0.30;;;0.30;;
10471;SDS011;5283;48.876;8.962;2023-11-19T08:23:49;0.40;;;0.40;;
10471;SDS011;5283;48.876;8.962;2023-11-19T08:26:16;0.37;;;0.37;;
10471;SDS011;5283;48.876;8.962;2023-11-19T08:28:45;0.33;;;0.30;;
10471;SDS011;5283;48.876;8.962;2023-11-19T08:31:12;0.10;;;0.10;;
10471;SDS011;5283;48.876;8.962;2023-11-19T08:33:39;0.60;;;0.40;;
10471;SDS011;5283;48.876;8.962;2023-11-19T08:36:06;0.87;;;0.40;;
10471;SDS011;5283;48.876;8.962;2023-11-19T08:38:33;0.20;;;0.20;;
10471;SDS011;5283;48.876;8.962;2023-11-19T08:41:00;1.30;;;1.17;;
10471;SDS011;5283;48.876;8.962;2023-11-19T08:43:27;0.50;;;0.50;;
10471;SDS011;5283;48.876;8.962;2023-11-19T08:45:53;0.30;;;0.30;;
10471;SDS011;5283;48.876;8.962;2023-11-19T08:48:20;0.93;;;0.20;;
10471;SDS011;5283;48.876;8.962;2023-11-19T08:50:47;0.77;;;0.50;;
10471;SDS011;5283;48.876;8.962;2023-11-19T08:53:14;1.23;;;0.40;;
10471;SDS011;5283;48.876;8.962;2023-11-19T08:55:41;1.07;;;0.30;;
10471;SDS011;5283;48.876;8.962;2023-11-19T08:58:08;0.57;;;0.30;;
10471;SDS011;5283;48.876;8.962;2023-11-19T09:00:34;0.30;;;0.17;;
10471;SDS011;5283;48.876;8.962;2023-11-19T09:03:02;0.30;;;0.30;;
10471;SDS011;5283;48.876;8.962;2023-11-19T09:05:29;3.73;;;0.70;;
10471;SDS011;5283;48.876;8.962;2023-11-19T09:07:55;1.90;;;0.43;;
10471;SDS011;5283;48.876;8.962;2023-11-19T09:10:22;0.83;;;0.40;;
10471;SDS011;5283;48.876;8.962;2023-11-19T09:12:49;0.20;;;0.20;;
10471;SDS011;5283;48.876;8.962;2023-11-19T09:15:15;1.43;;;0.50;;
10471;SDS011;5283;48.876;8.962;2023-11-19T09:17:42;1.03;;;0.57;;
10471;SDS011;5283;48.876;8.962;2023-11-19T09:20:09;0.83;;;0.33;;
10471;SDS011;5283;48.876;8.962;2023-11-19T09:22:38;2.70;;;0.33;;
10471;SDS011;5283;48.876;8.962;2023-11-19T09:25:05;0.60;;;0.33;;
10471;SDS011;5283;48.876;8.962;2023-11-19T09:27:32;1.10;;;0.50;;
10471;SDS011;5283;48.876;8.962;2023-11-19T09:29:59;0.70;;;0.30;;
10471;SDS011;5283;48.876;8.962;2023-11-19T09:32:26;0.87;;;0.30;;
10471;SDS011;5283;48.876;8.962;2023-11-19T09:34:53;1.03;;;0.30;;
10471;SDS011;5283;48.876;8.962;2023-11-19T09:37:19;0.33;;;0.30;;
10471;SDS011;5283;48.876;8.962;2023-11-19T09:39:47;0.10;;;0.10;;
10471;SDS011;5283;48.876;8.962;2023-11-19T09:42:14;0.27;;;0.27;;
10471;SDS011;5283;48.876;8.962;2023-11-19T09:44:40;0.60;;;0.37;;
10471;SDS011;5283;48.876;8.962;2023-11-19T09:47:09;0.20;;;0.20;;
10471;SDS011;5283;48.876;8.962;2023-11-19T09:49:38;0.77;;;0.23;;
10471;SDS011;5283;48.876;8.962;2023-11-19T09:52:05;1.20;;;0.20;;
10471;SDS011;5283;48.876;8.962;2023-11-19T09:54:32;0.87;;;0.50;;
10471;SDS011;5283;48.876;8.962;2023-11-19T09:56:59;1.03;;;0.40;;
10471;SDS011;5283;48.876;8.962;2023-11-19T09:59:30;0.97;;;0.33;;
10471;SDS011;5283;48.876;8.962;2023-11-19T10:01:57;0.27;;;0.27;;
10471;SDS011;5283;48.876;8.962;2023-11-19T10:04:25;0.20;;;0.20;;
10471;SDS011;5283;48.876;8.962;2023-11-19T10:06:56;0.93;;;0.40;;
10471;SDS011;5283;48.876;8.962;2023-11-19T10:09:23;0.20;;;0.20;;
10471;SDS011;5283;48.876;8.962;2023-11-19T10:11:49;0.50;;;0.50;;
10471;SDS011;5283;48.876;8.962;2023-11-19T10:14:16;0.30;;;0.30;;
10471;SDS011;5283;48.876;8.962;2023-11-19T10:16:48;0.30;;;0.20;;
10471;SDS011;5283;48.876;8.962;2023-11-19T10:19:19;0.83;;;0.40;;
10471;SDS011;5283;48.876;8.962;2023-11-19T10:21:49;0.50;;;0.40;;
10471;SDS011;5283;48.876;8.962;2023-11-19T10:24:16;1.07;;;0.47;;
10471;SDS011;5283;48.876;8.962;2023-11-19T10:26:57;0.57;;;0.30;;
10471;SDS011;5283;48.876;8.962;2023-11-19T10:29:23;0.77;;;0.20;;
10471;SDS011;5283;48.876;8.962;2023-11-19T10:31:57;0.20;;;0.20;;
10471;SDS011;5283;48.876;8.962;2023-11-19T10:34:27;0.53;;;0.30;;
10471;SDS011;5283;48.876;8.962;2023-11-19T10:36:54;0.43;;;0.23;;
10471;SDS011;5283;48.876;8.962;2023-11-19T10:39:20;0.77;;;0.20;;
10471;SDS011;5283;48.876;8.962;2023-11-19T10:41:49;0.43;;;0.30;;
10471;SDS011;5283;48.876;8.962;2023-11-19T10:44:30;0.63;;;0.30;;
10471;SDS011;5283;48.876;8.962;2023-11-19T10:47:05;0.93;;;0.37;;
10471;SDS011;5283;48.876;8.962;2023-11-19T10:49:34;0.33;;;0.33;;
10471;SDS011;5283;48.876;8.962;2023-11-19T10:52:01;1.23;;;0.40;;
10471;SDS011;5283;48.876;8.962;2023-11-19T10:54:29;1.17;;;0.43;;
10471;SDS011;5283;48.876;8.962;2023-11-19T10:56:58;0.20;;;0.10;;
10471;SDS011;5283;48.876;8.962;2023-11-19T10:59:30;0.00;;;0.00;;
10471;SDS011;5283;48.876;8.962;2023-11-19T11:02:00;0.00;;;0.00;;
10471;SDS011;5283;48.876;8.962;2023-11-19T11:04:32;0.90;;;0.50;;
10471;SDS011;5283;48.876;8.962;2023-11-19T11:07:05;1.47;;;0.50;;
10471;SDS011;5283;48.876;8.962;2023-11-19T11:09:35;1.43;;;0.57;;
10471;SDS011;5283;48.876;8.962;2023-11-19T11:12:01;1.50;;;0.40;;
10471;SDS011;5283;48.876;8.962;2023-11-19T11:14:30;0.40;;;0.40;;
10471;SDS011;5283;48.876;8.962;2023-11-19T11:16:58;2.87;;;0.90;;
10471;SDS011;5283;48.876;8.962;2023-11-19T11:19:26;0.53;;;0.43;;
10471;SDS011;5283;48.876;8.962;2023-11-19T11:21:53;0.50;;;0.50;;
10471;SDS011;5283;48.876;8.962;2023-11-19T11:29:38;0.00;;;0.00;;
10471;SDS011;5283;48.876;8.962;2023-11-19T11:35:12;0.00;;;0.00;;
10471;SDS011;5283;48.876;8.962;2023-11-19T11:37:53;0.07;;;0.00;;
10471;SDS011;5283;48.876;8.962;2023-11-19T11:40:27;0.00;;;0.00;;
10471;SDS011;5283;48.876;8.962;2023-11-19T11:42:53;0.00;;;0.00;;
10471;SDS011;5283;48.876;8.962;2023-11-19T11:45:33;0.00;;;0.00;;
10471;SDS011;5283;48.876;8.962;2023-11-19T11:48:08;0.00;;;0.00;;
10471;SDS011;5283;48.876;8.962;2023-11-19T11:50:50;0.00;;;0.00;;
10471;SDS011;5283;48.876;8.962;2023-11-19T11:53:21;1.50;;;0.60;;
10471;SDS011;5283;48.876;8.962;2023-11-19T11:58:21;0.93;;;0.50;;
10471;SDS011;5283;48.876;8.962;2023-11-19T12:00:51;1.63;;;0.80;;
10471;SDS011;5283;48.876;8.962;2023-11-19T12:03:22;1.23;;;0.90;;
10471;SDS011;5283;48.876;8.962;2023-11-19T12:05:49;0.73;;;0.47;;
10471;SDS011;5283;48.876;8.962;2023-11-19T12:08:19;0.33;;;0.20;;
10471;SDS011;5283;48.876;8.962;2023-11-19T12:10:51;0.10;;;0.10;;
10471;SDS011;5283;48.876;8.962;2023-11-19T12:13:25;0.00;;;0.00;;
10471;SDS011;5283;48.876;8.962;2023-11-19T12:16:10;0.70;;;0.70;;
10471;SDS011;5283;48.876;8.962;2023-11-19T12:18:38;0.00;;;0.00;;
10471;SDS011;5283;48.876;8.962;2023-11-19T12:21:06;0.83;;;0.57;;
10471;SDS011;5283;48.876;8.962;2023-11-19T12:23:36;0.80;;;0.70;;
10471;SDS011;5283;48.876;8.962;2023-11-19T12:26:20;1.33;;;0.50;;
10471;SDS011;5283;48.876;8.962;2023-11-19T12:29:16;0.70;;;0.50;;
10471;SDS011;5283;48.876;8.962;2023-11-19T12:31:44;0.90;;;0.57;;
10471;SDS011;5283;48.876;8.962;2023-11-19T12:34:11;1.10;;;0.43;;
10471;SDS011;5283;48.876;8.962;2023-11-19T12:36:38;0.63;;;0.40;;
10471;SDS011;5283;48.876;8.962;2023-11-19T12:39:05;2.23;;;0.50;;
10471;SDS011;5283;48.876;8.962;2023-11-19T12:41:32;0.60;;;0.30;;
10471;SDS011;5283;48.876;8.962;2023-11-19T12:44:15;1.70;;;0.40;;
10471;SDS011;5283;48.876;8.962;2023-11-19T12:46:41;1.03;;;0.50;;
10471;SDS011;5283;48.876;8.962;2023-11-19T12:49:08;0.93;;;0.47;;
10471;SDS011;5283;48.876;8.962;2023-11-19T12:51:37;1.03;;;0.73;;
10471;SDS011;5283;48.876;8.962;2023-11-19T12:54:04;1.80;;;0.40;;
10471;SDS011;5283;48.876;8.962;2023-11-19T12:56:31;1.33;;;0.70;;
10471;SDS011;5283;48.876;8.962;2023-11-19T12:59:01;0.80;;;0.40;;
10471;SDS011;5283;48.876;8.962;2023-11-19T13:01:37;1.63;;;0.70;;
10471;SDS011;5283;48.876;8.962;2023-11-19T13:04:15;1.90;;;0.50;;
10471;SDS011;5283;48.876;8.962;2023-11-19T13:06:44;2.30;;;0.50;;
10471;SDS011;5283;48.876;8.962;2023-11-19T13:09:29;0.60;;;0.30;;
10471;SDS011;5283;48.876;8.962;2023-11-19T13:11:57;1.47;;;0.40;;
10471;SDS011;5283;48.876;8.962;2023-11-19T13:14:35;0.60;;;0.50;;
10471;SDS011;5283;48.876;8.962;2023-11-19T13:17:04;0.53;;;0.40;;
10471;SDS011;5283;48.876;8.962;2023-11-19T13:19:31;1.33;;;0.97;;
10471;SDS011;5283;48.876;8.962;2023-11-19T13:21:58;0.83;;;0.50;;
10471;SDS011;5283;48.876;8.962;2023-11-19T13:24:25;1.17;;;0.40;;
10471;SDS011;5283;48.876;8.962;2023-11-19T13:26:51;0.73;;;0.47;;
10471;SDS011;5283;48.876;8.962;2023-11-19T13:29:18;0.77;;;0.40;;
10471;SDS011;5283;48.876;8.962;2023-11-19T13:31:45;1.80;;;0.50;;
10471;SDS011;5283;48.876;8.962;2023-11-19T13:34:11;0.60;;;0.60;;
10471;SDS011;5283;48.876;8.962;2023-11-19T13:36:38;1.00;;;0.40;;
10471;SDS011;5283;48.876;8.962;2023-11-19T13:39:05;1.83;;;0.40;;
10471;SDS011;5283;48.876;8.962;2023-11-19T13:41:33;0.40;;;0.40;;
10471;SDS011;5283;48.876;8.962;2023-11-19T13:44:00;0.93;;;0.60;;
10471;SDS011;5283;48.876;8.962;2023-11-19T13:46:27;1.00;;;0.50;;
10471;SDS011;5283;48.876;8.962;2023-11-19T13:48:53;1.33;;;0.63;;
10471;SDS011;5283;48.876;8.962;2023-11-19T13:51:20;1.20;;;0.50;;
10471;SDS011;5283;48.876;8.962;2023-11-19T13:53:47;0.87;;;0.60;;
10471;SDS011;5283;48.876;8.962;2023-11-19T13:56:16;0.70;;;0.40;;
10471;SDS011;5283;48.876;8.962;2023-11-19T13:58:43;1.07;;;0.40;;
10471;SDS011;5283;48.876;8.962;2023-11-19T14:01:10;2.33;;;0.60;;
10471;SDS011;5283;48.876;8.962;2023-11-19T14:03:39;1.10;;;0.50;;
10471;SDS011;5283;48.876;8.962;2023-11-19T14:06:07;0.83;;;0.50;;
10471;SDS011;5283;48.876;8.962;2023-11-19T14:08:35;1.97;;;0.70;;
10471;SDS011;5283;48.876;8.962;2023-11-19T14:11:02;0.77;;;0.50;;
10471;SDS011;5283;48.876;8.962;2023-11-19T14:13:29;1.03;;;0.53;;
10471;SDS011;5283;48.876;8.962;2023-11-19T14:15:56;2.50;;;0.80;;
10471;SDS011;5283;48.876;8.962;2023-11-19T14:18:23;0.60;;;0.40;;
10471;SDS011;5283;48.876;8.962;2023-11-19T14:20:49;3.03;;;0.60;;
10471;SDS011;5283;48.876;8.962;2023-11-19T14:23:16;1.07;;;0.53;;
10471;SDS011;5283;48.876;8.962;2023-11-19T14:25:43;1.30;;;0.30;;
10471;SDS011;5283;48.876;8.962;2023-11-19T14:28:10;0.70;;;0.60;;
10471;SDS011;5283;48.876;8.962;2023-11-19T14:30:37;0.67;;;0.40;;
10471;SDS011;5283;48.876;8.962;2023-11-19T14:33:04;1.57;;;0.63;;
10471;SDS011;5283;48.876;8.962;2023-11-19T14:35:31;0.73;;;0.60;;
10471;SDS011;5283;48.876;8.962;2023-11-19T14:37:59;1.10;;;0.50;;
10471;SDS011;5283;48.876;8.962;2023-11-19T14:40:26;1.23;;;0.30;;
10471;SDS011;5283;48.876;8.962;2023-11-19T14:42:58;0.97;;;0.60;;
10471;SDS011;5283;48.876;8.962;2023-11-19T14:45:25;1.87;;;0.50;;
10471;SDS011;5283;48.876;8.962;2023-11-19T14:47:52;1.10;;;0.57;;
10471;SDS011;5283;48.876;8.962;2023-11-19T14:50:20;2.97;;;0.70;;
10471;SDS011;5283;48.876;8.962;2023-11-19T14:52:47;0.93;;;0.50;;
10471;SDS011;5283;48.876;8.962;2023-11-19T14:55:13;0.83;;;0.70;;
10471;SDS011;5283;48.876;8.962;2023-11-19T14:57:40;1.20;;;0.63;;
10471;SDS011;5283;48.876;8.962;2023-11-19T15:00:09;1.50;;;0.70;;
10471;SDS011;5283;48.876;8.962;2023-11-19T15:02:42;2.13;;;0.80;;
10471;SDS011;5283;48.876;8.962;2023-11-19T15:05:09;2.07;;;0.63;;
10471;SDS011;5283;48.876;8.962;2023-11-19T15:07:36;3.43;;;0.67;;
10471;SDS011;5283;48.876;8.962;2023-11-19T15:10:04;1.07;;;0.37;;
10471;SDS011;5283;48.876;8.962;2023-11-19T15:12:38;1.77;;;0.50;;
10471;SDS011;5283;48.876;8.962;2023-11-19T15:15:07;1.10;;;0.23;;
10471;SDS011;5283;48.876;8.962;2023-11-19T15:17:40;0.63;;;0.50;;